WetterOnline ( http://www.wetteronline.ch )

Wetter aktuell Frankfurt am Main

Aktuelles Wetter: Offenbach (119m)

6-stündlich | Neueste Meldungen
Ortszeit Temperatur Wetter
Sa, 23.03. 19:00 11.8° C wolkig
Sa, 23.03. 13:00 15.9° C leicht bewölkt
Sa, 23.03. 7:00 0.7° C wolkenlos
Sa, 23.03. 1:00 4.7° C wolkenlos
Fr, 22.03. 19:00 15.1° C wolkenlos
Fr, 22.03. 13:00 15.5° C leicht bewölkt
Fr, 22.03. 7:00 0.8° C leicht bewölkt
Fr, 22.03. 1:00 3.5° C leicht bewölkt
Ortszeit Temperatur Wetter
Sa, 23.03. 23:00 7.9° C wolkig
Sa, 23.03. 22:40 8.0° C wolkig
Sa, 23.03. 22:30 8.3° C wolkig
Sa, 23.03. 22:20 8.3° C wolkig
Sa, 23.03. 22:10 8.4° C wolkig
Sa, 23.03. 22:00 8.7° C wolkig
Sa, 23.03. 21:50 8.7° C wolkig
Sa, 23.03. 21:30 9.1° C wolkig
Sa, 23.03. 21:00 9.6° C wolkig
Sa, 23.03. 20:30 10.1° C wolkig
Sa, 23.03. 20:00 10.5° C wolkig
Ortszeit Relative Feuchte Sichtweite
Sa, 23.03. 19:00 65% 6 km
Sa, 23.03. 13:00 49% 18 km
Sa, 23.03. 7:00 94% 19 km
Sa, 23.03. 1:00 86% 35 km
Fr, 22.03. 19:00 44% 50 km
Fr, 22.03. 13:00 38% 50 km
Fr, 22.03. 7:00 94% 22 km
Fr, 22.03. 1:00 87% 30 km
Ortszeit Relative Feuchte Sichtweite
Sa, 23.03. 23:00 80% 9 km
Sa, 23.03. 22:40 79% -
Sa, 23.03. 22:30 77% 11 km
Sa, 23.03. 22:20 77% -
Sa, 23.03. 22:10 77% -
Sa, 23.03. 22:00 75% 11 km
Sa, 23.03. 21:50 75% -
Sa, 23.03. 21:30 73% 12 km
Sa, 23.03. 21:00 70% 10 km
Sa, 23.03. 20:30 68% 13 km
Sa, 23.03. 20:00 69% 7 km
Ortszeit Niederschlagsmenge Niederschlagsart
Sa, 23.03. 19:00 0.0 l/m2 in 12 Std. -
Sa, 23.03. 13:00 0.0 l/m2 in 6 Std. -
Sa, 23.03. 7:00 0.0 l/m2 in 12 Std. -
Sa, 23.03. 1:00 0.0 l/m2 in 6 Std. -
Fr, 22.03. 19:00 0.0 l/m2 in 12 Std. -
Fr, 22.03. 13:00 0.0 l/m2 in 6 Std. -
Fr, 22.03. 7:00 0.0 l/m2 in 12 Std. -
Fr, 22.03. 1:00 0.0 l/m2 in 6 Std. -
Ortszeit Niederschlagsmenge Niederschlagsart
Sa, 23.03. 23:00 0.0 l/m2 in 1 Std. -
Sa, 23.03. 22:40 keine Meldung -
Sa, 23.03. 22:30 0.0 l/m2 in 1 Std. -
Sa, 23.03. 22:20 keine Meldung -
Sa, 23.03. 22:10 keine Meldung -
Sa, 23.03. 22:00 0.0 l/m2 in 1 Std. -
Sa, 23.03. 21:50 keine Meldung -
Sa, 23.03. 21:30 0.0 l/m2 in 1 Std. -
Sa, 23.03. 21:00 0.0 l/m2 in 1 Std. -
Sa, 23.03. 20:30 0.0 l/m2 in 1 Std. -
Sa, 23.03. 20:00 0.0 l/m2 in 1 Std. -
Ortszeit Stärke Spitze Richtung
km/h Bft. km/h Grad Sektor
Sa, 23.03. 19:00 11 2 36 350° N
Sa, 23.03. 13:00 9 2 17 300° NW
Sa, 23.03. 7:00 4 1 7 140° SO
Sa, 23.03. 1:00 0 0 14 - -
Fr, 22.03. 19:00 7 2 22 130° SO
Fr, 22.03. 13:00 7 2 14 50° NO
Fr, 22.03. 7:00 4 1 7 50° NO
Fr, 22.03. 1:00 2 1 9 90° O
Ortszeit Stärke Spitze Richtung
km/h Bft. km/h Grad Sektor
Sa, 23.03. 23:00 7 2 18 10° N
Sa, 23.03. 22:40 7 2 - 10° N
Sa, 23.03. 22:30 7 2 18 10° N
Sa, 23.03. 22:20 7 2 - 10° N
Sa, 23.03. 22:10 9 2 - 20° N
Sa, 23.03. 22:00 9 2 22 20° N
Sa, 23.03. 21:50 9 2 - 20° N
Sa, 23.03. 21:30 9 2 22 10° N
Sa, 23.03. 21:00 9 2 33 360° N
Sa, 23.03. 20:30 14 3 32 10° N
Sa, 23.03. 20:00 13 3 26 20° N
Ortszeit Untergrenze Bedeckung Gattung
total tief tief mittel hoch
Sa, 23.03. 19:00 10500 m 8/8 0/8 - - -
Sa, 23.03. 13:00 10500 m 8/8 0/8 - - -
Sa, 23.03. 7:00 - 0/8 0/8 - - -
Sa, 23.03. 1:00 - 0/8 0/8 - - -
Fr, 22.03. 19:00 10500 m 0/8 0/8 - - -
Fr, 22.03. 13:00 8400 m 8/8 0/8 - - -
Fr, 22.03. 7:00 9000 m 3/8 0/8 - - -
Fr, 22.03. 1:00 10500 m 4/8 0/8 - - -
Ortszeit Bedeckungsgrad in Achtel und Wolkenuntergrenze
Sa, 23.03. 23:00 8(10500m)
Sa, 23.03. 22:40 8(10500m)
Sa, 23.03. 22:30 8(10500m)
Sa, 23.03. 22:20 8(10500m)
Sa, 23.03. 22:10 8(10500m)
Sa, 23.03. 22:00 8(10500m)
Sa, 23.03. 21:50 8(10500m)
Sa, 23.03. 21:30 8(10500m) 8(12000m)
Sa, 23.03. 21:00 8(10500m) 8(10500m)
Sa, 23.03. 20:30 8(10500m) 8(10500m)
Sa, 23.03. 20:00 8(10500m) 8(10500m)
Ortszeit Luftdruck NN (hPa) Tendenz (hPa in 3 Std.)
Sa, 23.03. 19:00 1028 + 1,4
Sa, 23.03. 13:00 1028 - 0,5
Sa, 23.03. 7:00 1028 + 0,6
Sa, 23.03. 1:00 1028 - 0,4
Fr, 22.03. 19:00 1027 - 0,7
Fr, 22.03. 13:00 1030 - 1,5
Fr, 22.03. 7:00 1032 + 0,1
Fr, 22.03. 1:00 1033 - 0,2
Ortszeit Luftdruck NN (hPa) Tendenz (hPa in 3 Std.)
Sa, 23.03. 23:00 1029 - 0,2
Sa, 23.03. 22:40 1029 keine Meldung
Sa, 23.03. 22:30 1029 + 0,4
Sa, 23.03. 22:20 1029 keine Meldung
Sa, 23.03. 22:10 1029 keine Meldung
Sa, 23.03. 22:00 1029 + 0,8
Sa, 23.03. 21:50 1029 keine Meldung
Sa, 23.03. 21:30 1029 + 1,1
Sa, 23.03. 21:00 1029 + 1,4
Sa, 23.03. 20:30 1029 + 1,9
Sa, 23.03. 20:00 1029 + 2,0
Ortszeit Schneehöhe (cm)
Sa, 23.03. 19:00 0
Sa, 23.03. 13:00 0
Sa, 23.03. 7:00 0
Sa, 23.03. 1:00 0
Fr, 22.03. 19:00 0
Fr, 22.03. 13:00 0
Fr, 22.03. 7:00 0
Fr, 22.03. 1:00 0
Ortszeit Schneehöhe (cm)
Sa, 23.03. 23:00 0
Sa, 23.03. 22:40 0
Sa, 23.03. 22:30 0
Sa, 23.03. 22:20 0
Sa, 23.03. 22:10 0
Sa, 23.03. 22:00 0
Sa, 23.03. 21:50 0
Sa, 23.03. 21:30 0
Sa, 23.03. 21:00 0
Sa, 23.03. 20:30 0
Sa, 23.03. 20:00 0
Link zu dieser Seite / Seite empfehlen

Das Wetter in ...